createdAt,value
2023-04-24T00:01:44.884Z,92.20
2023-04-24T00:04:15.312Z,92.40
2023-04-24T00:06:43.927Z,92.70
2023-04-24T00:09:11.978Z,93.00
2023-04-24T00:11:40.414Z,93.30
2023-04-24T00:14:08.493Z,93.70
2023-04-24T00:16:38.336Z,94.00
2023-04-24T00:19:06.950Z,94.30
2023-04-24T00:21:35.196Z,94.70
2023-04-24T00:24:03.257Z,95.00
2023-04-24T00:26:31.985Z,95.10
2023-04-24T00:28:59.975Z,95.30
2023-04-24T00:31:29.296Z,95.70
2023-04-24T00:33:58.767Z,96.10
2023-04-24T00:36:28.088Z,96.60
2023-04-24T00:38:56.177Z,96.80
2023-04-24T00:41:25.553Z,97.20
2023-04-24T00:43:53.955Z,97.50
2023-04-24T00:46:23.022Z,97.90
2023-04-24T00:48:51.141Z,98.30
2023-04-24T00:51:21.356Z,99.00
2023-04-24T00:53:49.688Z,99.90
2023-04-24T00:56:18.434Z,99.70
2023-04-24T00:58:46.813Z,99.90
2023-04-24T01:01:15.751Z,99.90
2023-04-24T01:03:44.148Z,99.90
2023-04-24T01:06:13.163Z,99.90
2023-04-24T01:08:43.450Z,99.90
2023-04-24T01:11:12.000Z,99.90
2023-04-24T01:13:40.299Z,99.90
2023-04-24T01:16:09.169Z,99.90
2023-04-24T01:18:38.120Z,99.90
2023-04-24T01:21:07.134Z,99.90
2023-04-24T01:23:36.919Z,99.90
2023-04-24T01:26:05.302Z,99.90
2023-04-24T01:28:33.418Z,99.90
2023-04-24T01:31:01.665Z,99.90
2023-04-24T01:33:30.199Z,99.90
2023-04-24T01:35:58.650Z,99.90
2023-04-24T01:38:27.045Z,99.90
2023-04-24T01:40:56.383Z,99.90
2023-04-24T01:43:26.640Z,99.90
2023-04-24T01:45:54.620Z,99.90
2023-04-24T01:48:22.930Z,99.90
2023-04-24T01:50:50.923Z,99.90
2023-04-24T01:53:18.930Z,99.90
2023-04-24T01:55:46.942Z,99.90
2023-04-24T01:58:16.693Z,99.90
2023-04-24T02:00:44.749Z,99.90
2023-04-24T02:03:13.159Z,99.90
2023-04-24T02:05:41.183Z,99.90
2023-04-24T02:08:09.766Z,99.90
2023-04-24T02:10:39.413Z,99.90
2023-04-24T02:13:08.244Z,99.90
2023-04-24T02:15:37.934Z,99.90
2023-04-24T02:18:08.205Z,99.90
2023-04-24T02:20:36.504Z,99.90
2023-04-24T02:23:04.946Z,99.90
2023-04-24T02:25:32.997Z,99.90
2023-04-24T02:28:01.354Z,99.90
2023-04-24T02:30:29.744Z,99.90
2023-04-24T02:32:59.426Z,99.90
2023-04-24T02:35:27.888Z,99.90
2023-04-24T02:37:56.225Z,99.90
2023-04-24T02:40:24.555Z,99.90
2023-04-24T02:42:52.825Z,99.90
2023-04-24T02:45:21.206Z,99.90
2023-04-24T02:47:49.600Z,99.90
2023-04-24T02:50:19.058Z,99.90
2023-04-24T02:52:47.491Z,99.90
2023-04-24T02:55:15.876Z,99.90
2023-04-24T02:57:44.307Z,99.90
2023-04-24T03:00:13.228Z,99.90
2023-04-24T03:02:41.719Z,99.90
2023-04-24T03:05:12.961Z,99.90
2023-04-24T03:07:42.853Z,99.90
2023-04-24T03:10:11.529Z,99.90
2023-04-24T03:12:39.549Z,99.90
2023-04-24T03:15:08.486Z,99.90
2023-04-24T03:17:39.041Z,99.90
2023-04-24T03:20:09.134Z,99.90
2023-04-24T03:22:37.633Z,99.90
2023-04-24T03:25:10.851Z,99.90
2023-04-24T03:27:40.316Z,99.90
2023-04-24T03:30:27.559Z,99.90
2023-04-24T03:33:00.199Z,99.90
2023-04-24T03:35:32.208Z,99.90
2023-04-24T03:38:05.267Z,99.90
2023-04-24T03:40:44.106Z,99.90
2023-04-24T03:43:35.713Z,99.90
2023-04-24T03:46:04.500Z,99.90
2023-04-24T03:48:35.920Z,99.90
2023-04-24T03:51:04.324Z,99.90
2023-04-24T03:53:33.834Z,99.90
2023-04-24T03:56:03.831Z,99.90
2023-04-24T03:58:33.663Z,99.90
2023-04-24T04:01:02.210Z,99.90
2023-04-24T04:03:50.938Z,99.90
2023-04-24T04:06:23.148Z,99.90
2023-04-24T04:08:53.436Z,99.90
2023-04-24T04:11:23.172Z,99.90
2023-04-24T04:13:52.261Z,99.90
2023-04-24T04:16:23.129Z,99.90
2023-04-24T04:18:56.242Z,99.90
2023-04-24T04:21:24.407Z,99.90
2023-04-24T04:23:58.853Z,99.90
2023-04-24T04:26:36.461Z,99.90
2023-04-24T04:29:07.775Z,99.90
2023-04-24T04:31:40.654Z,99.90
2023-04-24T04:34:13.709Z,99.90
2023-04-24T04:36:44.011Z,99.90
2023-04-24T04:39:31.576Z,99.90
2023-04-24T04:42:08.700Z,99.90
2023-04-24T04:44:41.862Z,99.90
2023-04-24T04:47:13.571Z,99.90
2023-04-24T04:49:42.851Z,99.90
2023-04-24T04:52:18.677Z,99.90
2023-04-24T04:54:49.868Z,99.90
2023-04-24T04:57:19.560Z,99.90
2023-04-24T04:59:48.069Z,99.90
2023-04-24T05:02:24.547Z,99.90
2023-04-24T05:04:54.147Z,99.90
2023-04-24T05:07:22.429Z,99.90
2023-04-24T05:09:53.473Z,99.90
2023-04-24T05:12:22.953Z,99.90
2023-04-24T05:14:54.601Z,99.90
2023-04-24T05:17:23.291Z,99.90
2023-04-24T05:19:52.899Z,99.90
2023-04-24T05:22:22.046Z,99.90
2023-04-24T05:24:53.558Z,99.90
2023-04-24T05:27:34.982Z,99.90
2023-04-24T05:30:06.705Z,99.90
2023-04-24T05:32:35.256Z,99.90
2023-04-24T05:35:03.472Z,99.90
2023-04-24T05:37:31.489Z,99.90
2023-04-24T05:39:59.625Z,99.90
2023-04-24T05:42:28.455Z,99.90
2023-04-24T05:45:00.782Z,99.80
2023-04-24T05:47:28.850Z,99.10
2023-04-24T05:49:57.303Z,98.60
2023-04-24T05:52:25.585Z,98.30
2023-04-24T05:54:54.177Z,98.40
2023-04-24T05:57:25.889Z,98.40
2023-04-24T05:59:58.661Z,97.90
2023-04-24T06:02:33.556Z,97.70
2023-04-24T06:05:03.270Z,97.00
2023-04-24T06:07:31.373Z,96.60
2023-04-24T06:10:03.066Z,95.80
2023-04-24T06:12:36.571Z,95.50
2023-04-24T06:15:10.067Z,95.10
2023-04-24T06:17:59.069Z,94.70
2023-04-24T06:20:28.313Z,94.50
2023-04-24T06:22:56.343Z,93.10
2023-04-24T06:25:26.030Z,93.00
2023-04-24T06:27:54.049Z,93.10
2023-04-24T06:30:22.937Z,93.50
2023-04-24T06:32:51.122Z,93.50
2023-04-24T06:35:21.099Z,93.60
2023-04-24T06:37:49.268Z,93.50
2023-04-24T06:40:19.551Z,93.40
2023-04-24T06:42:47.865Z,93.60
2023-04-24T06:45:16.381Z,93.60
2023-04-24T06:47:44.756Z,93.80
2023-04-24T06:50:13.590Z,93.80
2023-04-24T06:52:43.017Z,94.10
2023-04-24T06:55:12.188Z,94.10
2023-04-24T06:57:41.177Z,94.20
2023-04-24T07:00:10.860Z,94.20
2023-04-24T07:02:39.741Z,94.10
2023-04-24T07:05:09.465Z,94.00
2023-04-24T07:07:38.961Z,93.90
2023-04-24T07:10:09.624Z,93.50
2023-04-24T07:12:38.465Z,93.40
2023-04-24T07:15:07.442Z,93.30
2023-04-24T07:17:36.079Z,93.20
2023-04-24T07:20:05.080Z,93.30
2023-04-24T07:22:33.526Z,93.10
2023-04-24T07:25:02.449Z,93.40
2023-04-24T07:27:31.883Z,93.40
2023-04-24T07:30:00.247Z,93.20
2023-04-24T07:32:29.162Z,92.90
2023-04-24T07:34:57.262Z,92.40
2023-04-24T07:37:25.995Z,91.70
2023-04-24T07:39:53.983Z,91.20
2023-04-24T07:42:22.679Z,90.40
2023-04-24T07:44:52.225Z,89.90
2023-04-24T07:47:20.595Z,88.60
2023-04-24T07:49:48.640Z,88.20
2023-04-24T07:52:16.677Z,88.10
2023-04-24T07:54:45.184Z,89.00
2023-04-24T07:57:13.370Z,88.40
2023-04-24T07:59:42.136Z,87.60
2023-04-24T08:02:12.119Z,87.00
2023-04-24T08:04:40.909Z,86.40
2023-04-24T08:07:08.972Z,84.20
2023-04-24T08:09:37.211Z,82.10
2023-04-24T08:12:05.361Z,80.40
2023-04-24T08:14:34.039Z,79.90
2023-04-24T08:17:02.382Z,79.20
2023-04-24T08:19:32.274Z,79.00
2023-04-24T08:22:00.309Z,76.70
2023-04-24T08:24:28.684Z,76.20
2023-04-24T08:26:58.927Z,76.40
2023-04-24T08:29:28.125Z,75.20
2023-04-24T08:31:56.671Z,74.40
2023-04-24T08:34:27.636Z,74.50
2023-04-24T08:36:57.038Z,73.30
2023-04-24T08:39:25.447Z,73.70
2023-04-24T08:41:54.765Z,73.30
2023-04-24T08:44:23.688Z,73.80
2023-04-24T08:46:52.588Z,73.20
2023-04-24T08:49:21.208Z,73.70
2023-04-24T08:51:50.695Z,74.50
2023-04-24T08:54:20.276Z,74.40
2023-04-24T08:56:49.799Z,74.30
2023-04-24T08:59:18.062Z,74.60
2023-04-24T09:01:47.335Z,73.40
2023-04-24T09:04:17.467Z,73.00
2023-04-24T09:06:46.343Z,71.70
2023-04-24T09:09:14.409Z,72.30
2023-04-24T09:11:43.912Z,72.40
2023-04-24T09:14:12.683Z,71.90
2023-04-24T09:16:40.695Z,71.70
2023-04-24T09:19:08.704Z,71.90
2023-04-24T09:21:37.008Z,72.00
2023-04-24T09:24:06.407Z,72.30
2023-04-24T09:26:34.754Z,72.90
2023-04-24T09:29:05.002Z,73.20
2023-04-24T09:31:33.444Z,73.60
2023-04-24T09:34:05.690Z,74.00
2023-04-24T09:36:35.108Z,74.00
2023-04-24T09:39:03.586Z,74.10
2023-04-24T09:41:31.625Z,74.10
2023-04-24T09:43:59.997Z,74.30
2023-04-24T09:46:34.264Z,74.10
2023-04-24T09:49:09.469Z,73.80
2023-04-24T09:51:38.573Z,73.30
2023-04-24T09:54:12.949Z,72.40
2023-04-24T09:56:44.047Z,72.30
2023-04-24T09:59:12.030Z,72.00
2023-04-24T10:01:43.676Z,70.90
2023-04-24T10:04:17.441Z,70.60
2023-04-24T10:06:45.862Z,71.00
2023-04-24T10:09:14.845Z,71.00
2023-04-24T10:11:44.040Z,70.20
2023-04-24T10:14:13.059Z,70.40
2023-04-24T10:16:43.255Z,68.80
2023-04-24T10:19:11.857Z,68.80
2023-04-24T10:21:43.375Z,67.80
2023-04-24T10:24:11.490Z,67.10
2023-04-24T10:26:40.923Z,66.10
2023-04-24T10:29:10.891Z,66.70
2023-04-24T10:31:39.151Z,66.50
2023-04-24T10:34:08.711Z,65.80
2023-04-24T10:36:37.432Z,65.20
2023-04-24T10:39:08.967Z,64.00
2023-04-24T10:41:39.037Z,63.80
2023-04-24T10:44:07.849Z,63.60
2023-04-24T10:46:35.905Z,64.00
2023-04-24T10:49:07.612Z,63.90
2023-04-24T10:51:49.839Z,63.40
2023-04-24T10:54:25.003Z,63.00
2023-04-24T10:56:53.046Z,62.70
2023-04-24T10:59:27.148Z,61.20
2023-04-24T11:01:55.744Z,61.20
2023-04-24T11:04:33.699Z,60.60
2023-04-24T11:07:04.326Z,60.80
2023-04-24T11:09:32.997Z,59.90
2023-04-24T11:12:08.929Z,59.00
2023-04-24T11:14:55.761Z,59.60
2023-04-24T11:17:34.513Z,59.40
2023-04-24T11:20:15.434Z,58.80
2023-04-24T11:22:55.559Z,58.80
2023-04-24T11:25:24.550Z,56.10
2023-04-24T11:27:52.594Z,55.30
2023-04-24T11:30:21.374Z,56.30
2023-04-24T11:32:50.183Z,56.10
2023-04-24T11:35:18.687Z,55.30
2023-04-24T11:38:08.035Z,55.60
2023-04-24T11:40:39.074Z,56.10
2023-04-24T11:43:08.309Z,55.60
2023-04-24T11:45:36.612Z,55.50
2023-04-24T11:48:05.124Z,55.00
2023-04-24T11:50:33.201Z,55.20
2023-04-24T11:53:02.166Z,54.80
2023-04-24T11:55:30.934Z,55.40
2023-04-24T11:58:01.117Z,54.80
2023-04-24T12:00:30.123Z,54.70
2023-04-24T12:03:06.955Z,54.40
2023-04-24T12:05:35.881Z,53.80
2023-04-24T12:08:04.075Z,53.10
2023-04-24T12:10:33.211Z,54.10
2023-04-24T12:13:02.654Z,54.40
2023-04-24T12:15:30.806Z,53.90
2023-04-24T12:17:59.030Z,53.60
2023-04-24T12:20:27.764Z,53.60
2023-04-24T12:22:56.440Z,55.40
2023-04-24T12:25:27.127Z,55.30
2023-04-24T12:27:56.299Z,54.30
2023-04-24T12:30:29.214Z,54.00
2023-04-24T12:32:59.228Z,54.40
2023-04-24T12:35:28.000Z,53.80
2023-04-24T12:37:56.020Z,54.10
2023-04-24T12:40:27.341Z,54.30
2023-04-24T12:42:55.698Z,54.50
2023-04-24T12:45:28.907Z,54.30
2023-04-24T12:47:56.890Z,54.50
2023-04-24T12:50:24.900Z,54.40
2023-04-24T12:52:52.927Z,54.30
2023-04-24T12:55:20.900Z,54.30
2023-04-24T12:57:48.872Z,53.90
2023-04-24T13:00:19.454Z,54.20
2023-04-24T13:02:49.705Z,54.40
2023-04-24T13:05:18.153Z,53.90
2023-04-24T13:07:46.148Z,54.00
2023-04-24T13:10:14.356Z,53.80
2023-04-24T13:12:46.007Z,53.00
2023-04-24T13:15:14.339Z,53.00
2023-04-24T13:17:42.339Z,53.20
2023-04-24T13:20:12.114Z,53.50
2023-04-24T13:22:40.256Z,53.00
2023-04-24T13:25:10.110Z,51.50
2023-04-24T13:27:40.092Z,51.30
2023-04-24T13:30:08.762Z,49.50
2023-04-24T13:32:37.702Z,49.50
2023-04-24T13:35:06.125Z,48.70
2023-04-24T13:37:35.489Z,48.80
2023-04-24T13:40:03.494Z,47.80
2023-04-24T13:42:31.553Z,48.40
2023-04-24T13:45:00.862Z,48.90
2023-04-24T13:47:29.089Z,49.00
2023-04-24T13:49:57.066Z,50.00
2023-04-24T13:52:25.081Z,50.60
2023-04-24T13:54:54.397Z,51.00
2023-04-24T13:57:22.408Z,51.20
2023-04-24T13:59:50.380Z,51.70
2023-04-24T14:02:18.467Z,51.90
2023-04-24T14:04:46.744Z,52.60
2023-04-24T14:07:14.942Z,53.10
2023-04-24T14:09:43.033Z,53.50
2023-04-24T14:12:12.626Z,53.60
2023-04-24T14:14:40.653Z,52.80
2023-04-24T14:17:09.108Z,52.30
2023-04-24T14:19:37.508Z,52.40
2023-04-24T14:22:05.531Z,52.30
2023-04-24T14:24:33.849Z,53.00
2023-04-24T14:27:02.387Z,53.30
2023-04-24T14:29:34.835Z,53.10
2023-04-24T14:32:03.356Z,53.00
2023-04-24T14:34:31.718Z,53.40
2023-04-24T14:37:00.493Z,53.30
2023-04-24T14:39:29.000Z,53.40
2023-04-24T14:41:57.729Z,53.40
2023-04-24T14:44:26.248Z,53.80
2023-04-24T14:46:55.675Z,54.40
2023-04-24T14:49:25.230Z,54.70
2023-04-24T14:51:53.201Z,55.20
2023-04-24T14:54:24.161Z,55.60
2023-04-24T14:56:52.166Z,56.10
2023-04-24T14:59:21.011Z,56.60
2023-04-24T15:01:48.998Z,56.80
2023-04-24T15:04:19.165Z,57.10
2023-04-24T15:06:47.205Z,57.70
2023-04-24T15:09:15.569Z,58.20
2023-04-24T15:11:43.549Z,58.70
2023-04-24T15:14:12.335Z,59.10
2023-04-24T15:16:40.710Z,59.20
2023-04-24T15:19:08.818Z,59.10
2023-04-24T15:21:38.703Z,59.00
2023-04-24T15:24:07.052Z,59.20
2023-04-24T15:26:35.404Z,59.40
2023-04-24T15:29:03.729Z,59.80
2023-04-24T15:31:32.203Z,60.00
2023-04-24T15:34:00.617Z,60.40
2023-04-24T15:36:28.660Z,60.50
2023-04-24T15:38:58.426Z,60.40
2023-04-24T15:41:26.891Z,60.50
2023-04-24T15:43:55.638Z,61.00
2023-04-24T15:46:23.582Z,60.80
2023-04-24T15:48:52.015Z,60.80
2023-04-24T15:51:19.946Z,60.90
2023-04-24T15:53:48.705Z,61.40
2023-04-24T15:56:18.443Z,61.80
2023-04-24T15:58:47.579Z,61.60
2023-04-24T16:01:15.795Z,61.00
2023-04-24T16:03:44.769Z,61.20
2023-04-24T16:06:14.270Z,60.80
2023-04-24T16:08:42.849Z,60.80
2023-04-24T16:11:10.891Z,61.10
2023-04-24T16:13:41.005Z,61.00
2023-04-24T16:16:09.058Z,61.30
2023-04-24T16:18:37.907Z,61.50
2023-04-24T16:21:06.203Z,62.60
2023-04-24T16:23:34.851Z,61.70
2023-04-24T16:26:02.849Z,61.70
2023-04-24T16:28:38.214Z,61.60
2023-04-24T16:31:07.634Z,61.80
2023-04-24T16:33:36.133Z,61.60
2023-04-24T16:36:05.869Z,61.80
2023-04-24T16:38:38.058Z,61.60
2023-04-24T16:41:06.469Z,61.70
2023-04-24T16:43:34.651Z,62.00
2023-04-24T16:46:03.459Z,62.30
2023-04-24T16:48:35.330Z,62.60
2023-04-24T16:51:04.128Z,63.00
2023-04-24T16:53:32.164Z,63.30
2023-04-24T16:56:00.738Z,63.50
2023-04-24T16:58:29.135Z,63.70
2023-04-24T17:00:57.776Z,63.80
2023-04-24T17:03:26.690Z,64.00
2023-04-24T17:05:56.251Z,64.20
2023-04-24T17:08:25.413Z,64.40
2023-04-24T17:10:53.499Z,64.50
2023-04-24T17:13:22.071Z,64.60
2023-04-24T17:15:50.223Z,64.70
2023-04-24T17:18:19.283Z,64.80
2023-04-24T17:20:47.855Z,65.20
2023-04-24T17:23:17.430Z,65.40
2023-04-24T17:25:45.901Z,65.70
2023-04-24T17:28:17.716Z,65.90
2023-04-24T17:30:45.820Z,66.10
2023-04-24T17:33:14.284Z,66.30
2023-04-24T17:35:42.350Z,66.40
2023-04-24T17:38:10.871Z,68.90
2023-04-24T17:40:40.500Z,66.90
2023-04-24T17:43:08.815Z,75.90
2023-04-24T17:45:37.591Z,75.30
2023-04-24T17:48:06.556Z,67.50
2023-04-24T17:50:34.984Z,67.20
2023-04-24T17:53:02.992Z,67.60
2023-04-24T17:55:31.370Z,67.70
2023-04-24T17:58:01.893Z,67.90
2023-04-24T18:00:30.795Z,68.10
2023-04-24T18:03:01.059Z,68.20
2023-04-24T18:05:29.918Z,68.40
2023-04-24T18:07:58.697Z,68.70
2023-04-24T18:10:27.538Z,69.00
2023-04-24T18:12:55.955Z,69.20
2023-04-24T18:15:25.475Z,69.40
2023-04-24T18:17:53.861Z,69.60
2023-04-24T18:20:22.082Z,69.80
2023-04-24T18:22:50.701Z,70.00
2023-04-24T18:25:26.164Z,70.20
2023-04-24T18:27:55.870Z,70.50
2023-04-24T18:30:26.294Z,70.80
2023-04-24T18:32:54.697Z,71.10
2023-04-24T18:35:23.843Z,71.50
2023-04-24T18:37:52.253Z,71.90
2023-04-24T18:40:21.498Z,72.20
2023-04-24T18:42:52.615Z,72.40
2023-04-24T18:45:21.638Z,72.70
2023-04-24T18:47:51.134Z,72.90
2023-04-24T18:50:20.109Z,73.30
2023-04-24T18:52:48.242Z,73.70
2023-04-24T18:55:16.661Z,74.80
2023-04-24T18:57:44.710Z,74.40
2023-04-24T19:00:13.657Z,74.70
2023-04-24T19:02:49.928Z,77.40
2023-04-24T19:05:19.555Z,80.20
2023-04-24T19:07:47.552Z,84.10
2023-04-24T19:10:17.014Z,80.60
2023-04-24T19:12:45.106Z,77.40
2023-04-24T19:15:13.595Z,76.00
2023-04-24T19:17:41.757Z,75.80
2023-04-24T19:20:10.510Z,75.60
2023-04-24T19:22:39.900Z,75.60
2023-04-24T19:25:08.755Z,75.60
2023-04-24T19:27:36.808Z,75.50
2023-04-24T19:30:05.593Z,75.40
2023-04-24T19:32:33.752Z,75.40
2023-04-24T19:35:02.494Z,75.40
2023-04-24T19:37:32.240Z,75.50
2023-04-24T19:40:02.566Z,75.80
2023-04-24T19:42:42.517Z,76.40
2023-04-24T19:45:12.784Z,76.10
2023-04-24T19:47:40.945Z,75.50
2023-04-24T19:50:10.253Z,76.70
2023-04-24T19:52:38.302Z,78.00
2023-04-24T19:55:09.230Z,79.20
2023-04-24T19:57:37.192Z,77.10
2023-04-24T20:00:06.481Z,79.30
2023-04-24T20:02:35.306Z,76.40
2023-04-24T20:05:04.425Z,76.50
2023-04-24T20:07:32.640Z,77.10
2023-04-24T20:10:01.130Z,78.80
2023-04-24T20:12:30.563Z,84.20
2023-04-24T20:14:59.209Z,84.10
2023-04-24T20:17:27.298Z,83.60
2023-04-24T20:19:56.264Z,84.60
2023-04-24T20:22:24.372Z,83.10
2023-04-24T20:24:53.257Z,83.00
2023-04-24T20:27:21.331Z,83.30
2023-04-24T20:29:51.651Z,83.10
2023-04-24T20:32:19.726Z,84.70
2023-04-24T20:34:48.410Z,83.80
2023-04-24T20:37:16.440Z,85.80
2023-04-24T20:39:44.789Z,87.80
2023-04-24T20:42:13.360Z,86.50
2023-04-24T20:44:42.581Z,86.00
2023-04-24T20:47:12.412Z,88.20
2023-04-24T20:49:40.949Z,87.00
2023-04-24T20:52:08.944Z,85.70
2023-04-24T20:54:37.439Z,86.40
2023-04-24T20:57:05.499Z,85.50
2023-04-24T20:59:33.891Z,85.80
2023-04-24T21:02:01.915Z,86.00
2023-04-24T21:04:32.268Z,86.40
2023-04-24T21:07:00.339Z,87.10
2023-04-24T21:09:28.770Z,86.10
2023-04-24T21:11:57.100Z,87.20
2023-04-24T21:14:25.530Z,87.30
2023-04-24T21:16:56.608Z,87.90
2023-04-24T21:19:24.753Z,88.00
2023-04-24T21:21:54.100Z,89.40
2023-04-24T21:24:22.778Z,88.30
2023-04-24T21:26:51.050Z,88.00
2023-04-24T21:29:19.750Z,87.70
2023-04-24T21:31:47.918Z,89.20
2023-04-24T21:34:17.127Z,89.80
2023-04-24T21:36:46.029Z,89.50
2023-04-24T21:39:16.129Z,89.80
2023-04-24T21:41:45.606Z,90.00
2023-04-24T21:44:14.611Z,90.40
2023-04-24T21:46:43.098Z,90.40
2023-04-24T21:49:12.026Z,90.10
2023-04-24T21:51:40.096Z,90.60
2023-04-24T21:54:08.881Z,90.50
2023-04-24T21:56:38.563Z,90.00
2023-04-24T21:59:07.100Z,90.30
2023-04-24T22:01:36.086Z,90.30
2023-04-24T22:04:04.850Z,89.70
2023-04-24T22:06:33.864Z,90.10
2023-04-24T22:09:02.819Z,90.10
2023-04-24T22:11:31.109Z,89.70
2023-04-24T22:14:01.250Z,89.80
2023-04-24T22:16:31.038Z,89.60
2023-04-24T22:19:00.105Z,89.60
2023-04-24T22:21:28.645Z,89.90
2023-04-24T22:23:57.076Z,89.00
2023-04-24T22:26:25.154Z,88.50
2023-04-24T22:28:53.431Z,88.30
2023-04-24T22:31:23.208Z,87.90
2023-04-24T22:33:51.981Z,87.70
2023-04-24T22:36:20.319Z,87.90
2023-04-24T22:38:48.752Z,88.20
2023-04-24T22:41:16.717Z,88.00
2023-04-24T22:43:45.555Z,88.80
2023-04-24T22:46:13.623Z,89.30
2023-04-24T22:48:43.323Z,90.00
2023-04-24T22:51:11.345Z,89.50
2023-04-24T22:53:39.704Z,90.00
2023-04-24T22:56:08.027Z,90.50
2023-04-24T22:58:36.314Z,90.50
2023-04-24T23:01:04.777Z,90.50
2023-04-24T23:03:33.728Z,90.50
2023-04-24T23:06:03.480Z,90.50
2023-04-24T23:08:32.008Z,90.90
2023-04-24T23:11:00.517Z,91.10
2023-04-24T23:13:28.847Z,90.80
2023-04-24T23:15:56.834Z,90.80
2023-04-24T23:18:25.129Z,91.20
2023-04-24T23:20:53.129Z,91.60
2023-04-24T23:23:22.770Z,91.60
2023-04-24T23:25:50.976Z,91.30
2023-04-24T23:28:19.281Z,90.80
2023-04-24T23:30:47.283Z,90.70
2023-04-24T23:33:15.613Z,91.40
2023-04-24T23:35:43.608Z,91.00
2023-04-24T23:38:11.612Z,91.30
2023-04-24T23:40:41.121Z,91.30
2023-04-24T23:43:09.404Z,91.50
2023-04-24T23:45:37.427Z,91.20
2023-04-24T23:48:05.928Z,91.80
2023-04-24T23:50:34.434Z,92.00
2023-04-24T23:53:02.606Z,92.30
2023-04-24T23:55:30.889Z,93.30
2023-04-24T23:58:00.246Z,93.10
